Time;durP1;ratioP1;P1;durP2;ratioP2;P2;SDS_P1;SDS_P2;PMS_P1;PMS_P2;Temp;Humidity;BMP_temperature;BMP_pressure;BME280_temperature;BME280_humidity;BME280_pressure;Samples;Min_cycle;Max_cycle;Signal;HPM_P1;HPM_P2
2021/07/26 00:01:04;;;;;;;2.47;1.40;;;17.60;98.00;;;;;;5110644;28;20527;-71
2021/07/26 00:03:31;;;;;;;1.60;1.30;;;17.60;98.00;;;;;;5111336;28;20491;-71
2021/07/26 00:05:59;;;;;;;1.50;1.43;;;17.50;98.00;;;;;;5112447;28;20526;-71
2021/07/26 00:08:28;;;;;;;1.20;1.20;;;17.50;98.00;;;;;;5111212;28;20512;-74
2021/07/26 00:11:02;;;;;;;1.40;1.30;;;17.40;98.00;;;;;;5110669;28;20543;-72
2021/07/26 00:13:29;;;;;;;1.37;1.13;;;17.30;98.00;;;;;;5111159;28;20515;-72
2021/07/26 00:15:56;;;;;;;1.40;1.40;;;17.20;98.00;;;;;;5112092;28;20490;-71
2021/07/26 00:18:23;;;;;;;1.40;1.17;;;17.30;98.00;;;;;;5111840;28;20518;-71
2021/07/26 00:20:51;;;;;;;1.33;1.20;;;17.40;98.00;;;;;;5112018;28;20505;-73
2021/07/26 00:23:18;;;;;;;2.27;1.30;;;17.50;98.00;;;;;;5111633;28;20459;-72
2021/07/26 00:25:46;;;;;;;1.20;1.10;;;17.50;98.00;;;;;;5111678;28;20455;-71
2021/07/26 00:28:13;;;;;;;1.20;1.20;;;17.40;98.00;;;;;;5111827;28;21007;-72
2021/07/26 00:30:41;;;;;;;1.60;1.43;;;17.60;98.00;;;;;;5111769;28;20523;-73
2021/07/26 00:33:57;;;;;;;1.60;1.30;;;17.60;98.00;;;;;;5111593;28;20880;-71
2021/07/26 00:36:24;;;;;;;3.77;1.47;;;17.50;98.00;;;;;;5080115;28;20459;-71
2021/07/26 00:38:51;;;;;;;1.20;1.20;;;17.40;98.00;;;;;;5111500;28;20853;-72
2021/07/26 00:41:22;;;;;;;1.87;1.27;;;17.40;98.00;;;;;;5111626;28;20506;-71
2021/07/26 00:43:49;;;;;;;1.20;1.20;;;17.30;98.00;;;;;;5110192;28;20447;-72
2021/07/26 00:46:16;;;;;;;1.30;1.20;;;17.30;98.00;;;;;;5111631;28;20455;-72
2021/07/26 00:48:44;;;;;;;1.30;1.23;;;17.30;98.00;;;;;;5111278;28;20463;-72
2021/07/26 00:51:12;;;;;;;1.20;1.20;;;17.20;98.00;;;;;;5111542;28;20455;-72
2021/07/26 00:53:39;;;;;;;1.30;1.20;;;17.20;98.00;;;;;;5111365;28;20509;-72
2021/07/26 00:56:07;;;;;;;1.40;1.23;;;17.40;98.00;;;;;;5110161;28;20486;-71
2021/07/26 00:58:36;;;;;;;1.50;1.40;;;17.60;98.00;;;;;;5111431;28;20566;-72
2021/07/26 01:01:03;;;;;;;1.30;1.20;;;17.50;98.00;;;;;;5111407;28;20512;-71
2021/07/26 01:03:30;;;;;;;1.20;1.10;;;17.50;98.00;;;;;;5111224;28;20968;-72
2021/07/26 01:05:58;;;;;;;1.20;1.03;;;17.50;98.00;;;;;;5111527;28;20536;-71
2021/07/26 01:08:25;;;;;;;1.20;1.13;;;17.60;98.00;;;;;;5111488;28;20483;-71
2021/07/26 01:10:53;;;;;;;1.40;1.30;;;17.50;98.00;;;;;;5110710;28;20453;-73
2021/07/26 01:13:24;;;;;;;2.00;1.20;;;17.50;98.00;;;;;;5111321;28;20483;-74
2021/07/26 01:15:54;;;;;;;1.50;1.30;;;17.50;98.00;;;;;;5111182;28;20462;-70
2021/07/26 01:18:24;;;;;;;1.50;1.20;;;17.50;98.00;;;;;;5109847;28;20455;-72
2021/07/26 01:20:54;;;;;;;1.30;1.30;;;17.60;98.00;;;;;;5111190;28;20814;-71
2021/07/26 01:23:22;;;;;;;1.30;1.30;;;17.40;98.00;;;;;;5112892;28;20459;-71
2021/07/26 01:25:50;;;;;;;1.87;1.40;;;17.50;98.00;;;;;;5115412;28;20490;-71
2021/07/26 01:28:19;;;;;;;1.20;1.00;;;17.50;98.00;;;;;;5114457;28;20521;-72
2021/07/26 01:30:47;;;;;;;1.20;1.10;;;17.50;98.00;;;;;;5115143;28;20451;-71
2021/07/26 01:33:16;;;;;;;1.20;1.10;;;17.30;98.00;;;;;;5114965;28;20455;-72
2021/07/26 01:35:43;;;;;;;1.33;1.30;;;17.10;98.00;;;;;;5115053;28;20516;-73
2021/07/26 01:38:11;;;;;;;1.57;1.30;;;17.00;98.00;;;;;;5115271;28;20458;-71
2021/07/26 01:40:41;;;;;;;1.40;1.20;;;17.00;98.00;;;;;;5115083;28;20579;-72
2021/07/26 01:43:10;;;;;;;1.47;1.37;;;17.00;98.00;;;;;;5113805;28;20458;-72
2021/07/26 01:45:40;;;;;;;1.20;1.20;;;17.10;98.00;;;;;;5114813;28;20454;-72
2021/07/26 01:48:15;;;;;;;1.20;1.10;;;17.20;98.00;;;;;;5113374;28;20698;-71
2021/07/26 01:50:48;;;;;;;1.50;1.27;;;17.30;98.00;;;;;;5114974;28;20471;-71
2021/07/26 01:53:16;;;;;;;1.20;1.20;;;17.30;98.00;;;;;;5114742;28;20458;-70
2021/07/26 01:55:44;;;;;;;1.97;1.40;;;17.50;98.00;;;;;;5114772;28;20458;-72
2021/07/26 01:58:11;;;;;;;1.70;1.40;;;17.70;98.00;;;;;;5114890;28;20454;-72
2021/07/26 02:00:44;;;;;;;1.40;1.20;;;17.60;98.00;;;;;;5114525;28;20482;-71
2021/07/26 02:03:11;;;;;;;1.20;1.10;;;17.40;98.00;;;;;;5113457;28;20451;-70
2021/07/26 02:05:38;;;;;;;1.20;1.10;;;17.30;98.00;;;;;;5113187;28;20494;-71
2021/07/26 02:08:05;;;;;;;1.40;1.27;;;17.30;98.00;;;;;;5114730;28;20512;-72
2021/07/26 02:10:33;;;;;;;1.30;1.20;;;17.30;98.00;;;;;;5114692;28;20515;-71
2021/07/26 02:13:00;;;;;;;1.20;1.00;;;17.20;98.00;;;;;;5114471;28;20543;-70
2021/07/26 02:15:27;;;;;;;1.20;1.20;;;17.30;98.00;;;;;;5114404;28;20482;-70
2021/07/26 02:17:55;;;;;;;1.50;1.40;;;17.30;98.00;;;;;;5114319;28;20471;-71
2021/07/26 02:20:22;;;;;;;1.30;1.20;;;17.50;98.00;;;;;;5114261;28;20490;-71
2021/07/26 02:22:49;;;;;;;1.23;1.17;;;17.50;98.00;;;;;;5114370;28;20467;-71
2021/07/26 02:25:17;;;;;;;1.67;1.53;;;17.60;98.00;;;;;;5114272;28;20523;-70
2021/07/26 02:27:46;;;;;;;1.30;1.20;;;17.50;98.00;;;;;;5114121;28;20462;-71
2021/07/26 02:30:15;;;;;;;1.20;1.10;;;17.40;98.00;;;;;;5113135;28;20483;-72
2021/07/26 02:32:46;;;;;;;2.40;1.30;;;17.40;98.00;;;;;;5113862;28;20863;-72
2021/07/26 02:35:13;;;;;;;1.20;1.20;;;17.20;98.00;;;;;;5113734;28;20507;-71
2021/07/26 02:37:40;;;;;;;1.20;1.10;;;17.10;98.00;;;;;;5114135;28;20455;-70
2021/07/26 02:40:09;;;;;;;1.20;1.10;;;17.10;98.00;;;;;;5113909;28;21040;-71
2021/07/26 02:42:37;;;;;;;1.40;1.20;;;17.00;98.00;;;;;;5113917;28;20463;-70
2021/07/26 02:45:07;;;;;;;1.20;1.10;;;17.00;98.00;;;;;;5114162;28;20944;-71
2021/07/26 02:47:34;;;;;;;1.20;1.07;;;17.00;98.00;;;;;;5114043;28;20459;-70
2021/07/26 02:50:01;;;;;;;1.20;1.20;;;17.10;98.00;;;;;;5112810;28;20878;-71
2021/07/26 02:52:28;;;;;;;1.80;1.37;;;17.10;98.00;;;;;;5113787;28;20515;-72
2021/07/26 02:54:55;;;;;;;1.20;1.20;;;17.00;98.00;;;;;;5113754;28;20536;-72
2021/07/26 02:57:22;;;;;;;1.37;1.20;;;16.90;98.00;;;;;;5113644;28;20524;-70
2021/07/26 02:59:52;;;;;;;1.20;1.10;;;16.80;98.00;;;;;;5113425;28;20722;-72
2021/07/26 03:02:20;;;;;;;1.20;1.17;;;16.80;98.00;;;;;;5112403;28;20459;-73
2021/07/26 03:04:48;;;;;;;1.50;1.20;;;16.90;98.00;;;;;;5113594;28;20467;-72
2021/07/26 03:07:15;;;;;;;1.50;1.23;;;16.90;98.00;;;;;;5113366;28;20462;-71
2021/07/26 03:09:42;;;;;;;1.20;1.10;;;17.00;98.00;;;;;;5112145;28;20455;-72
2021/07/26 03:12:09;;;;;;;1.43;1.33;;;17.20;98.00;;;;;;5113314;28;20850;-71
2021/07/26 03:14:36;;;;;;;1.47;1.17;;;17.30;98.00;;;;;;5113069;28;20500;-71
2021/07/26 03:17:04;;;;;;;1.57;1.40;;;17.20;98.00;;;;;;5112004;28;20500;-71
2021/07/26 03:19:34;;;;;;;1.40;1.20;;;17.20;98.00;;;;;;5113067;28;21196;-71
2021/07/26 03:22:45;;;;;;;1.40;1.23;;;17.10;98.00;;;;;;5112982;28;20520;-73
2021/07/26 03:25:13;;;;;;;1.43;1.20;;;17.30;98.00;;;;;;5098052;27;20816;-71
2021/07/26 03:27:40;;;;;;;1.20;1.10;;;17.30;98.00;;;;;;5113019;28;20963;-71
2021/07/26 03:30:08;;;;;;;1.90;1.43;;;17.30;98.00;;;;;;5112996;28;20487;-71
2021/07/26 03:32:35;;;;;;;1.73;1.20;;;17.30;98.00;;;;;;5113079;28;20520;-70
2021/07/26 03:35:04;;;;;;;1.40;1.20;;;17.20;98.00;;;;;;5111781;28;20486;-71
2021/07/26 03:37:31;;;;;;;1.47;1.40;;;17.20;98.00;;;;;;5112789;28;20459;-73
2021/07/26 03:39:58;;;;;;;1.30;1.20;;;17.20;98.00;;;;;;5112639;28;20514;-72
2021/07/26 03:42:27;;;;;;;1.60;1.50;;;17.20;98.00;;;;;;5113649;28;20458;-71
2021/07/26 03:44:56;;;;;;;2.80;1.60;;;17.40;98.00;;;;;;5112949;28;20937;-72
2021/07/26 03:47:24;;;;;;;1.87;1.37;;;17.30;98.00;;;;;;5113241;28;20455;-72
2021/07/26 03:49:51;;;;;;;1.23;1.20;;;17.40;98.00;;;;;;5113379;28;20450;-72
2021/07/26 03:52:20;;;;;;;1.70;1.40;;;17.40;98.00;;;;;;5112880;28;20451;-71
2021/07/26 03:54:47;;;;;;;1.60;1.20;;;17.40;98.00;;;;;;5112533;28;20491;-71
2021/07/26 03:57:14;;;;;;;2.87;1.50;;;17.40;98.00;;;;;;5111426;28;20451;-71
2021/07/26 03:59:41;;;;;;;1.40;1.20;;;17.30;98.00;;;;;;5112222;28;20483;-70
2021/07/26 04:02:08;;;;;;;1.20;1.10;;;17.20;98.00;;;;;;5112570;28;20492;-71
2021/07/26 04:04:35;;;;;;;1.40;1.20;;;17.10;98.00;;;;;;5112461;28;20893;-73
2021/07/26 04:07:05;;;;;;;1.20;1.20;;;17.10;98.00;;;;;;5112613;28;20528;-72
2021/07/26 04:09:37;;;;;;;1.30;1.30;;;17.20;98.00;;;;;;5112378;28;20466;-71
2021/07/26 04:12:07;;;;;;;1.20;1.10;;;17.20;98.00;;;;;;5111189;28;21009;-70
2021/07/26 04:14:42;;;;;;;1.60;1.40;;;17.20;98.00;;;;;;5112096;28;20530;-71
2021/07/26 04:17:09;;;;;;;1.30;1.20;;;17.20;98.00;;;;;;5112185;28;20549;-71
2021/07/26 04:19:38;;;;;;;1.20;1.10;;;17.20;98.00;;;;;;5112110;28;20507;-71
2021/07/26 04:22:05;;;;;;;1.40;1.30;;;17.30;98.00;;;;;;5111905;28;20486;-71
2021/07/26 04:24:33;;;;;;;2.13;1.23;;;17.30;98.00;;;;;;5112082;28;20484;-71
2021/07/26 04:27:00;;;;;;;2.47;1.33;;;17.20;98.00;;;;;;5111733;28;20467;-71
2021/07/26 04:29:27;;;;;;;1.30;1.20;;;17.20;98.00;;;;;;5110634;28;20482;-72
2021/07/26 04:31:54;;;;;;;2.63;1.73;;;17.20;98.00;;;;;;5111793;28;20495;-71
2021/07/26 04:34:21;;;;;;;1.20;1.20;;;17.20;98.00;;;;;;5111825;28;21002;-71
2021/07/26 04:36:50;;;;;;;2.37;1.80;;;17.30;98.00;;;;;;5111860;28;20497;-70
2021/07/26 04:39:17;;;;;;;1.80;1.27;;;17.40;98.00;;;;;;5111662;28;20459;-71
2021/07/26 04:41:45;;;;;;;1.57;1.10;;;17.50;98.00;;;;;;5111319;28;20490;-71
2021/07/26 04:44:12;;;;;;;1.37;1.37;;;17.60;98.00;;;;;;5110961;28;20451;-71
2021/07/26 04:46:39;;;;;;;1.43;1.37;;;17.70;98.00;;;;;;5111331;28;20447;-71
2021/07/26 04:49:06;;;;;;;1.43;1.30;;;17.70;98.00;;;;;;5111644;28;20515;-70
2021/07/26 04:51:34;;;;;;;1.27;1.20;;;17.60;98.00;;;;;;5111415;28;20487;-72
2021/07/26 04:54:01;;;;;;;1.20;1.10;;;17.50;98.00;;;;;;5110385;28;20463;-71
2021/07/26 04:56:28;;;;;;;1.20;1.20;;;17.50;98.00;;;;;;5111480;28;20490;-71
2021/07/26 04:58:57;;;;;;;1.40;1.37;;;17.50;98.00;;;;;;5110292;28;20486;-71
2021/07/26 05:01:24;;;;;;;1.53;1.43;;;17.70;98.00;;;;;;5111623;28;20486;-70
2021/07/26 05:03:51;;;;;;;1.20;1.17;;;17.80;98.00;;;;;;5111514;28;21027;-70
2021/07/26 05:06:19;;;;;;;1.37;1.20;;;17.90;98.00;;;;;;5111217;28;20896;-71
2021/07/26 05:08:48;;;;;;;1.30;1.20;;;17.90;98.00;;;;;;5111390;28;20451;-71
2021/07/26 05:11:15;;;;;;;1.20;1.03;;;17.90;98.00;;;;;;5110223;28;20466;-72
2021/07/26 05:13:42;;;;;;;1.50;1.20;;;18.00;98.00;;;;;;5111468;28;20464;-71
2021/07/26 05:16:11;;;;;;;1.30;1.20;;;18.10;98.00;;;;;;5111373;28;20508;-71
2021/07/26 05:18:38;;;;;;;1.37;1.33;;;18.00;98.00;;;;;;5110289;28;20542;-71
2021/07/26 05:21:05;;;;;;;1.27;1.23;;;18.20;98.00;;;;;;5110133;28;20491;-72
2021/07/26 05:23:33;;;;;;;1.20;1.13;;;18.20;98.00;;;;;;5111398;28;20520;-71
2021/07/26 05:26:00;;;;;;;2.03;1.20;;;18.20;98.00;;;;;;5111381;28;20917;-70
2021/07/26 05:28:27;;;;;;;1.43;1.30;;;18.00;98.00;;;;;;5110290;28;20459;-71
2021/07/26 05:30:54;;;;;;;1.40;1.30;;;17.90;98.00;;;;;;5111306;28;20463;-70
2021/07/26 05:33:22;;;;;;;1.27;1.20;;;17.90;98.00;;;;;;5111275;28;20462;-71
2021/07/26 05:35:49;;;;;;;1.30;1.20;;;17.80;98.00;;;;;;5111006;28;20463;-72
2021/07/26 05:38:16;;;;;;;1.93;1.33;;;18.00;98.00;;;;;;5111333;28;20503;-71
2021/07/26 05:40:43;;;;;;;1.60;1.40;;;18.00;98.00;;;;;;5110693;28;21070;-71
2021/07/26 05:43:11;;;;;;;1.40;1.30;;;18.00;98.00;;;;;;5111126;28;20507;-69
2021/07/26 05:45:39;;;;;;;1.20;1.10;;;18.10;98.00;;;;;;5110756;28;20551;-71
2021/07/26 05:48:07;;;;;;;1.20;1.10;;;18.00;98.00;;;;;;5111109;28;20451;-70
2021/07/26 05:50:35;;;;;;;1.40;1.30;;;18.00;98.00;;;;;;5111002;28;20941;-70
2021/07/26 05:53:05;;;;;;;1.57;1.33;;;18.00;98.00;;;;;;5110887;28;20790;-71
2021/07/26 05:55:32;;;;;;;1.77;1.53;;;18.10;98.00;;;;;;5109586;28;21050;-71
2021/07/26 05:58:03;;;;;;;2.20;1.40;;;18.10;98.00;;;;;;5109663;28;20946;-72
2021/07/26 06:00:37;;;;;;;1.20;1.10;;;18.30;98.00;;;;;;5110930;28;20482;-71
2021/07/26 06:03:04;;;;;;;1.50;1.47;;;18.30;98.00;;;;;;5110754;28;20458;-71
2021/07/26 06:05:31;;;;;;;1.40;1.33;;;18.20;98.00;;;;;;5109785;28;20451;-70
2021/07/26 06:08:00;;;;;;;1.30;1.10;;;18.30;98.00;;;;;;5110904;28;20523;-70
2021/07/26 06:10:27;;;;;;;1.70;1.30;;;18.30;98.00;;;;;;5113737;28;20495;-70
2021/07/26 06:12:55;;;;;;;1.37;1.17;;;18.30;98.00;;;;;;5114414;28;20490;-69
2021/07/26 06:15:23;;;;;;;1.47;1.20;;;18.30;98.00;;;;;;5114551;28;20444;-70
2021/07/26 06:17:50;;;;;;;1.50;1.40;;;18.30;98.00;;;;;;5114634;28;20977;-70
2021/07/26 06:20:17;;;;;;;2.47;1.20;;;18.30;98.00;;;;;;5113953;28;20535;-71
2021/07/26 06:22:45;;;;;;;1.40;1.30;;;18.40;98.00;;;;;;5114126;28;20447;-71
2021/07/26 06:25:14;;;;;;;1.97;1.30;;;18.50;98.00;;;;;;5113133;28;20508;-70
2021/07/26 06:27:41;;;;;;;1.50;1.43;;;18.60;98.00;;;;;;5113943;28;20516;-71
2021/07/26 06:30:09;;;;;;;1.70;1.30;;;18.70;98.00;;;;;;5114364;28;20450;-73
2021/07/26 06:32:37;;;;;;;1.33;1.27;;;18.80;98.00;;;;;;5114174;28;20941;-71
2021/07/26 06:35:05;;;;;;;1.60;1.40;;;19.00;98.00;;;;;;5114249;28;20463;-70
2021/07/26 06:37:33;;;;;;;1.43;1.40;;;18.90;98.00;;;;;;5114127;28;20459;-70
2021/07/26 06:40:00;;;;;;;2.07;1.40;;;19.00;98.00;;;;;;5114321;28;20866;-72
2021/07/26 06:42:28;;;;;;;1.40;1.20;;;19.10;98.00;;;;;;5112871;28;20918;-73
2021/07/26 06:44:56;;;;;;;1.23;1.20;;;19.00;98.00;;;;;;5114286;28;20941;-70
2021/07/26 06:47:23;;;;;;;1.47;1.30;;;19.00;98.00;;;;;;5112872;28;20455;-72
2021/07/26 06:49:50;;;;;;;1.20;1.20;;;19.00;98.00;;;;;;5113863;28;20524;-72
2021/07/26 06:52:18;;;;;;;1.50;1.30;;;19.00;98.00;;;;;;5112969;27;20463;-72
2021/07/26 06:54:45;;;;;;;1.30;1.30;;;19.10;98.00;;;;;;5113712;28;20459;-72
2021/07/26 06:57:12;;;;;;;2.00;1.50;;;19.20;98.00;;;;;;5113748;28;20523;-71
2021/07/26 06:59:42;;;;;;;1.40;1.40;;;19.30;98.00;;;;;;5113713;28;20451;-71
2021/07/26 07:02:09;;;;;;;2.53;1.70;;;19.40;98.00;;;;;;5113594;28;20780;-71
2021/07/26 07:04:36;;;;;;;1.90;1.40;;;19.60;98.00;;;;;;5113454;28;20516;-71
2021/07/26 07:07:06;;;;;;;1.53;1.20;;;19.70;98.00;;;;;;5113389;28;20499;-71
2021/07/26 07:09:33;;;;;;;2.37;1.63;;;19.80;98.00;;;;;;5113512;28;20836;-73
2021/07/26 07:12:02;;;;;;;1.20;1.20;;;19.90;98.00;;;;;;5113223;28;20452;-72
2021/07/26 07:14:29;;;;;;;1.33;1.33;;;19.90;98.00;;;;;;5112198;28;20464;-71
2021/07/26 07:16:58;;;;;;;1.37;1.20;;;20.10;98.00;;;;;;5112998;28;20466;-73
2021/07/26 07:19:25;;;;;;;1.60;1.40;;;20.20;98.00;;;;;;5107988;28;20466;-73
2021/07/26 07:21:52;;;;;;;1.20;1.20;;;20.20;98.00;;;;;;5089690;28;20833;-72
2021/07/26 07:24:19;;;;;;;1.60;1.50;;;20.30;98.00;;;;;;5092683;28;20460;-70
2021/07/26 07:26:46;;;;;;;1.30;1.30;;;20.20;98.00;;;;;;5098812;28;20532;-71
2021/07/26 07:29:15;;;;;;;1.50;1.40;;;20.30;98.00;;;;;;5100520;28;20501;-69
2021/07/26 07:31:42;;;;;;;1.43;1.43;;;20.40;98.00;;;;;;5100651;28;20953;-71
2021/07/26 07:34:12;;;;;;;1.90;1.87;;;20.50;98.00;;;;;;5099117;28;20491;-71
2021/07/26 07:36:40;;;;;;;1.33;1.13;;;20.50;98.00;;;;;;5090959;28;20463;-71
2021/07/26 07:39:07;;;;;;;1.50;1.30;;;20.40;98.00;;;;;;5091857;28;20451;-71
2021/07/26 07:41:34;;;;;;;1.30;1.30;;;20.40;98.00;;;;;;5080521;28;20481;-72
2021/07/26 07:44:03;;;;;;;1.40;1.37;;;20.40;98.00;;;;;;5099491;28;20459;-72
2021/07/26 07:46:30;;;;;;;1.43;1.33;;;20.40;98.00;;;;;;5099412;28;20450;-72
2021/07/26 07:48:57;;;;;;;2.00;1.20;;;20.50;98.00;;;;;;5080264;28;20492;-73
2021/07/26 07:51:26;;;;;;;1.90;1.27;;;20.50;98.00;;;;;;5097263;28;20458;-73
2021/07/26 07:53:54;;;;;;;3.40;1.87;;;20.60;98.00;;;;;;5081979;28;20962;-72
2021/07/26 07:56:21;;;;;;;1.40;1.20;;;20.70;98.00;;;;;;5082214;28;20444;-73
2021/07/26 07:58:49;;;;;;;1.27;1.20;;;20.70;98.00;;;;;;5099056;28;20515;-71
2021/07/26 08:01:17;;;;;;;1.20;1.13;;;20.80;98.00;;;;;;5106997;28;20536;-73
2021/07/26 08:03:44;;;;;;;1.37;1.33;;;21.00;98.00;;;;;;5072525;28;20449;-72
2021/07/26 08:06:11;;;;;;;1.90;1.53;;;21.20;98.00;;;;;;5087923;28;20482;-73
2021/07/26 08:08:39;;;;;;;2.27;1.50;;;21.40;98.00;;;;;;5091023;28;20493;-73
2021/07/26 08:11:08;;;;;;;1.67;1.40;;;21.50;98.00;;;;;;5106521;28;20455;-72
2021/07/26 08:13:37;;;;;;;1.40;1.30;;;21.60;98.00;;;;;;5104869;28;20452;-71
2021/07/26 08:16:05;;;;;;;1.50;1.50;;;21.50;98.00;;;;;;5089715;28;20450;-71
2021/07/26 08:18:32;;;;;;;1.47;1.40;;;21.50;98.00;;;;;;5087503;28;20457;-71
2021/07/26 08:20:59;;;;;;;1.83;1.30;;;21.60;98.00;;;;;;5093074;28;20476;-73
2021/07/26 08:23:26;;;;;;;1.93;1.50;;;21.70;98.00;;;;;;5098879;28;20463;-72
2021/07/26 08:25:55;;;;;;;1.40;1.40;;;21.80;98.00;;;;;;5099459;28;20456;-72
2021/07/26 08:28:23;;;;;;;1.43;1.33;;;21.90;98.00;;;;;;5098733;28;20516;-70
2021/07/26 08:30:50;;;;;;;1.30;1.20;;;22.00;98.00;;;;;;5088136;28;20449;-73
2021/07/26 08:33:17;;;;;;;1.67;1.60;;;22.10;98.00;;;;;;5108427;28;20467;-71
2021/07/26 08:35:44;;;;;;;2.00;1.50;;;22.10;98.00;;;;;;5090836;28;20795;-72
2021/07/26 08:38:11;;;;;;;1.50;1.33;;;22.10;98.00;;;;;;5108124;28;20508;-73
2021/07/26 08:40:38;;;;;;;1.50;1.30;;;22.10;98.00;;;;;;5097880;28;20508;-71
2021/07/26 08:43:08;;;;;;;1.60;1.50;;;22.20;98.00;;;;;;5089240;28;20580;-73
2021/07/26 08:45:36;;;;;;;1.60;1.50;;;22.30;98.00;;;;;;5097984;28;20535;-73
2021/07/26 08:48:05;;;;;;;1.47;1.37;;;22.40;98.00;;;;;;5089576;28;20456;-73
2021/07/26 08:50:34;;;;;;;1.63;1.53;;;22.50;98.00;;;;;;5094493;28;20492;-73
2021/07/26 08:53:04;;;;;;;1.87;1.50;;;22.80;98.00;;;;;;5095056;28;20492;-73
2021/07/26 08:55:34;;;;;;;1.77;1.30;;;23.00;98.00;;;;;;5098093;28;20462;-72
2021/07/26 08:58:01;;;;;;;1.20;1.20;;;23.20;98.00;;;;;;5089736;28;20447;-73
2021/07/26 09:00:38;;;;;;;1.57;1.40;;;23.30;98.00;;;;;;5097912;28;20460;-73
2021/07/26 09:03:05;;;;;;;1.60;1.40;;;23.50;98.00;;;;;;5088587;28;20833;-73
2021/07/26 09:05:32;;;;;;;1.40;1.40;;;23.50;98.00;;;;;;5106215;28;20455;-73
2021/07/26 09:08:01;;;;;;;1.37;1.33;;;23.60;98.00;;;;;;5098102;28;20452;-73
2021/07/26 09:10:33;;;;;;;1.30;1.20;;;23.70;98.00;;;;;;5081763;28;20452;-72
2021/07/26 09:13:01;;;;;;;1.30;1.20;;;23.80;98.00;;;;;;5096760;28;20820;-71
2021/07/26 09:15:30;;;;;;;1.30;1.30;;;24.00;98.00;;;;;;5099654;28;20550;-72
2021/07/26 09:18:00;;;;;;;1.60;1.30;;;24.10;98.00;;;;;;5097160;28;20463;-73
2021/07/26 09:20:29;;;;;;;1.60;1.33;;;24.20;98.00;;;;;;5089989;28;20452;-72
2021/07/26 09:22:58;;;;;;;1.40;1.30;;;24.40;98.00;;;;;;5090781;28;20488;-72
2021/07/26 09:25:26;;;;;;;1.30;1.20;;;24.50;98.00;;;;;;5098239;28;20517;-74
2021/07/26 09:28:08;;;;;;;1.33;1.23;;;24.60;98.00;;;;;;5089369;28;20495;-73
2021/07/26 09:30:39;;;;;;;1.60;1.23;;;24.70;98.00;;;;;;5089275;28;20503;-73
2021/07/26 09:33:26;;;;;;;1.70;1.40;;;24.80;98.00;;;;;;5097879;28;21019;-69
2021/07/26 09:36:08;;;;;;;1.50;1.40;;;24.90;98.00;;;;;;5103746;28;20542;-73
2021/07/26 09:38:35;;;;;;;3.10;1.80;;;25.10;98.00;;;;;;5090617;28;20463;-71
2021/07/26 09:41:04;;;;;;;1.67;1.57;;;25.00;97.50;;;;;;5105111;28;20442;-71
2021/07/26 09:43:31;;;;;;;1.90;1.60;;;25.10;98.00;;;;;;5107224;28;20458;-70
2021/07/26 09:46:00;;;;;;;2.27;1.50;;;25.30;98.00;;;;;;5094390;28;20463;-71
2021/07/26 09:48:30;;;;;;;1.60;1.50;;;25.40;98.00;;;;;;5103264;28;21118;-72
2021/07/26 09:50:59;;;;;;;1.23;1.20;;;25.60;97.90;;;;;;5093072;28;20523;-70
2021/07/26 09:53:27;;;;;;;1.50;1.50;;;25.70;95.80;;;;;;5103123;28;20792;-71
2021/07/26 09:55:56;;;;;;;1.97;1.60;;;25.80;96.60;;;;;;5092997;28;20509;-71
2021/07/26 09:58:36;;;;;;;2.10;1.63;;;25.90;95.50;;;;;;5101831;28;20456;-71
2021/07/26 10:01:04;;;;;;;1.90;1.70;;;25.90;95.00;;;;;;5101852;28;20557;-72
2021/07/26 10:03:36;;;;;;;1.97;1.40;;;25.80;94.90;;;;;;5093861;28;20875;-70
2021/07/26 10:06:03;;;;;;;1.83;1.70;;;26.00;95.50;;;;;;5093878;28;20964;-71
2021/07/26 10:08:31;;;;;;;1.83;1.43;;;26.00;97.00;;;;;;5111449;28;20547;-71
2021/07/26 10:10:58;;;;;;;1.40;1.40;;;26.00;96.50;;;;;;5093877;28;21074;-71
2021/07/26 10:13:26;;;;;;;1.40;1.30;;;26.10;95.80;;;;;;5084458;28;20518;-72
2021/07/26 10:15:55;;;;;;;1.60;1.50;;;26.00;94.90;;;;;;5093620;28;20456;-72
2021/07/26 10:18:22;;;;;;;1.80;1.60;;;25.90;96.80;;;;;;5084828;28;20456;-74
2021/07/26 10:21:00;;;;;;;1.53;1.40;;;25.80;98.00;;;;;;5092275;28;21027;-71
2021/07/26 10:23:34;;;;;;;1.73;1.50;;;25.60;96.80;;;;;;5094143;28;20553;-70
2021/07/26 10:26:05;;;;;;;1.70;1.67;;;25.40;96.20;;;;;;5109915;28;20459;-72
2021/07/26 10:28:35;;;;;;;2.60;1.53;;;25.40;95.00;;;;;;5099360;28;21044;-71
2021/07/26 10:31:02;;;;;;;1.73;1.40;;;25.40;96.40;;;;;;5093462;28;20466;-72
2021/07/26 10:33:30;;;;;;;1.30;1.30;;;25.40;95.20;;;;;;5099154;28;21212;-71
2021/07/26 10:35:58;;;;;;;1.87;1.73;;;25.30;96.90;;;;;;5084276;28;20481;-70
2021/07/26 10:38:54;;;;;;;1.50;1.50;;;25.30;98.00;;;;;;5089244;28;20451;-72
2021/07/26 10:41:59;;;;;;;1.90;1.50;;;25.30;98.00;;;;;;5107498;28;20451;-71
2021/07/26 10:44:47;;;;;;;1.40;1.33;;;25.40;98.00;;;;;;5100835;28;20447;-72
2021/07/26 10:47:18;;;;;;;1.43;1.33;;;25.50;98.00;;;;;;5095546;28;20483;-71
2021/07/26 10:50:15;;;;;;;1.50;1.40;;;25.50;97.80;;;;;;5104436;28;20460;-72
2021/07/26 10:52:47;;;;;;;1.83;1.43;;;25.60;97.60;;;;;;5108734;28;20465;-71
2021/07/26 10:56:00;;;;;;;2.23;1.63;;;25.60;97.30;;;;;;5101542;28;20968;-71
2021/07/26 10:59:04;;;;;;;1.83;1.53;;;25.60;98.00;;;;;;5093117;28;20512;-72
2021/07/26 11:01:58;;;;;;;1.63;1.40;;;25.70;98.00;;;;;;5109957;28;20458;-71
2021/07/26 11:04:42;;;;;;;1.40;1.30;;;25.90;97.90;;;;;;5100713;28;20505;-71
2021/07/26 11:07:25;;;;;;;1.70;1.60;;;26.20;98.00;;;;;;5092336;28;20506;-70
2021/07/26 11:09:54;;;;;;;2.27;1.40;;;26.30;97.90;;;;;;5092251;28;20455;-71
2021/07/26 11:12:53;;;;;;;2.27;1.67;;;26.40;96.50;;;;;;5100736;28;20496;-72
2021/07/26 11:15:21;;;;;;;1.70;1.50;;;26.40;95.20;;;;;;5099505;28;20448;-72
2021/07/26 11:18:28;;;;;;;1.50;1.40;;;26.50;96.10;;;;;;5109261;28;20447;-72
2021/07/26 11:21:13;;;;;;;2.00;1.50;;;26.60;94.90;;;;;;5105154;28;20451;-71
2021/07/26 11:23:52;;;;;;;2.13;1.40;;;27.00;95.60;;;;;;5101013;28;20491;-72
2021/07/26 11:26:23;;;;;;;1.50;1.40;;;27.40;94.30;;;;;;5092047;28;20463;-74
2021/07/26 11:28:52;;;;;;;1.47;1.30;;;27.90;92.60;;;;;;5099761;28;20551;-73
2021/07/26 11:31:38;;;;;;;2.67;1.60;;;28.00;91.90;;;;;;5082963;28;20483;-73
2021/07/26 11:34:13;;;;;;;2.30;1.43;;;28.00;89.80;;;;;;5100659;28;20467;-72
2021/07/26 11:37:03;;;;;;;1.77;1.70;;;28.00;91.10;;;;;;5080497;28;20447;-72
2021/07/26 11:39:48;;;;;;;2.30;1.80;;;27.80;91.30;;;;;;5097819;28;20494;-72
2021/07/26 11:42:20;;;;;;;2.43;1.50;;;27.90;90.90;;;;;;5092610;28;20536;-73
2021/07/26 11:44:49;;;;;;;1.90;1.60;;;28.30;90.90;;;;;;5091302;28;20536;-72
2021/07/26 11:47:17;;;;;;;1.63;1.40;;;28.80;87.50;;;;;;5108773;28;20980;-72
2021/07/26 11:49:48;;;;;;;1.60;1.50;;;29.30;86.20;;;;;;5106187;28;20466;-71
2021/07/26 11:52:16;;;;;;;1.57;1.40;;;29.60;82.70;;;;;;5098255;28;21048;-71
2021/07/26 11:54:44;;;;;;;1.80;1.73;;;29.60;80.80;;;;;;5100212;28;20459;-73
2021/07/26 11:57:13;;;;;;;2.70;2.10;;;29.50;82.40;;;;;;5108605;28;20455;-72
2021/07/26 11:59:49;;;;;;;1.90;1.70;;;29.30;82.60;;;;;;5091372;28;20520;-73
2021/07/26 12:02:25;;;;;;;1.83;1.60;;;29.50;83.20;;;;;;5092835;28;21022;-71
2021/07/26 12:04:52;;;;;;;1.60;1.50;;;29.70;82.80;;;;;;5107301;28;20451;-71
2021/07/26 12:07:39;;;;;;;2.20;1.53;;;29.50;81.00;;;;;;5098150;28;20537;-72
2021/07/26 12:10:08;;;;;;;1.63;1.37;;;29.10;81.00;;;;;;5099617;28;20474;-71
2021/07/26 12:12:40;;;;;;;1.40;1.30;;;29.00;82.00;;;;;;5088371;28;20483;-68
2021/07/26 12:15:29;;;;;;;2.07;1.57;;;28.90;84.40;;;;;;5102450;28;20456;-71
2021/07/26 12:18:04;;;;;;;1.87;1.70;;;28.80;83.40;;;;;;5090881;28;20511;-71
2021/07/26 12:20:32;;;;;;;1.47;1.40;;;28.50;84.00;;;;;;5093140;28;20462;-72
2021/07/26 12:23:10;;;;;;;2.50;1.70;;;28.30;86.30;;;;;;5107554;28;20491;-72
2021/07/26 12:25:43;;;;;;;1.60;1.40;;;28.20;87.50;;;;;;5090819;28;20499;-73
2021/07/26 12:28:11;;;;;;;2.70;1.60;;;28.10;86.40;;;;;;5092538;28;20486;-71
2021/07/26 12:30:42;;;;;;;1.60;1.60;;;28.00;86.90;;;;;;5101784;28;20504;-72
2021/07/26 12:33:11;;;;;;;2.23;1.50;;;27.80;84.90;;;;;;5099728;28;20464;-71
2021/07/26 12:35:38;;;;;;;2.47;1.80;;;27.70;87.40;;;;;;5098857;28;21271;-72
2021/07/26 12:38:21;;;;;;;2.23;1.50;;;27.60;88.30;;;;;;5090337;28;20533;-71
2021/07/26 12:41:02;;;;;;;1.33;1.30;;;27.60;88.00;;;;;;5096448;28;20502;-71
2021/07/26 12:43:29;;;;;;;1.70;1.43;;;27.50;89.30;;;;;;5103333;28;20490;-71
2021/07/26 12:46:00;;;;;;;2.00;1.50;;;27.50;89.30;;;;;;5102878;28;20525;-72
2021/07/26 12:48:28;;;;;;;3.03;1.80;;;27.40;89.00;;;;;;5103322;28;20463;-72
2021/07/26 12:50:57;;;;;;;1.50;1.40;;;27.30;89.10;;;;;;5097826;28;20916;-73
2021/07/26 12:53:24;;;;;;;1.87;1.50;;;27.20;90.40;;;;;;5076853;28;20468;-72
2021/07/26 12:55:53;;;;;;;2.90;1.50;;;27.10;89.90;;;;;;5091467;28;20455;-71
2021/07/26 12:58:22;;;;;;;1.83;1.57;;;27.10;89.40;;;;;;5107303;28;20516;-71
2021/07/26 13:00:51;;;;;;;1.63;1.60;;;27.00;89.80;;;;;;5098329;28;20482;-73
2021/07/26 13:03:20;;;;;;;1.60;1.40;;;26.80;91.30;;;;;;5092593;28;20491;-71